Main page
METAR-TAF:

METAR-TAF

Airports :

Yariguíes Airport

Barrancabermeja, Colombia

latitude: 07-01N, longitude: 073-48W, elevation: 126 m

Current weather observation

The report was made 5 hours and 1 minutes ago, at 19:00 UTC
Wind 3 kt from the North/Northeast
Temperature 34°C
Humidity 63%
Pressure 1006 hPa
Visibility 10 km or more
Scattered clouds at a height of 2000 ft

METAR: SKEJ 051900Z 03003KT 9999 SCT020 34/26 A2972

Time: 19:01 (00:01 UTC)


TAF: missing

Weather observations and forecasts of more than 4000 airports (METAR and TAF reports).

The available stations are represented by yellow and red dots on the map.

Hover mouse over dot to see the name of the station.

Then click to see weather observations and forecasts.

To change the map : click on the green buttons with a black cross to zoom in, on the green button with a dash to zoom out, or on the green arrows for adjacent maps.


METAR-TAF: